Time;durP1;ratioP1;P1;durP2;ratioP2;P2;SDS_P1;SDS_P2;PMS_P1;PMS_P2;Temp;Humidity;BMP_temperature;BMP_pressure;BME280_temperature;BME280_humidity;BME280_pressure;Samples;Min_cycle;Max_cycle;Signal;HPM_P1;HPM_P2
2022/03/23 00:04:22;;;;;;;13.63;5.93;;;;;;;1.94;67.64;97856.78;10415802;28;20228;-61
2022/03/23 00:09:23;;;;;;;14.90;6.70;;;;;;;2.18;66.19;97818.56;10417111;28;20232;-59
2022/03/23 00:14:23;;;;;;;14.77;6.77;;;;;;;1.95;66.91;97846.38;10416139;28;20231;-61
2022/03/23 00:19:23;;;;;;;11.63;5.53;;;;;;;1.74;68.08;97848.22;10416161;28;20216;-61
2022/03/23 00:24:25;;;;;;;17.00;6.23;;;;;;;2.15;65.64;97808.38;10415332;28;20190;-60
2022/03/23 00:29:25;;;;;;;10.60;5.93;;;;;;;2.19;65.47;97806.44;10415286;28;20231;-60
2022/03/23 00:34:25;;;;;;;10.97;6.30;;;;;;;1.95;66.46;97822.28;10414603;28;20231;-59
2022/03/23 00:39:26;;;;;;;9.97;5.73;;;;;;;2.28;64.29;97783.56;10415101;28;20282;-60
2022/03/23 00:44:26;;;;;;;13.30;6.50;;;;;;;2.27;64.31;97784.47;10415408;28;20214;-60
2022/03/23 00:49:27;;;;;;;12.77;6.27;;;;;;;2.58;61.97;97743.25;10414772;28;20230;-61
2022/03/23 00:54:28;;;;;;;14.60;6.43;;;;;;;1.77;67.00;97855.84;10414589;28;20196;-60
2022/03/23 00:59:28;;;;;;;14.20;6.43;;;;;;;0.81;70.66;97926.44;10414889;28;20580;-60
2022/03/23 01:04:28;;;;;;;9.33;4.67;;;;;;;0.88;71.21;97937.31;10415353;28;20194;-61
2022/03/23 01:09:30;;;;;;;16.23;7.17;;;;;;;0.64;72.34;97945.19;10414990;28;20578;-60
2022/03/23 01:14:30;;;;;;;13.63;5.97;;;;;;;0.61;72.25;97919.53;10413478;28;20197;-59
2022/03/23 01:19:31;;;;;;;14.10;6.57;;;;;;;1.35;68.92;97862.13;10413768;28;20267;-59
2022/03/23 01:24:32;;;;;;;12.23;5.47;;;;;;;2.54;62.67;97721.06;10412111;28;20276;-59
2022/03/23 01:29:33;;;;;;;14.00;6.37;;;;;;;3.35;57.74;97638.94;10411869;28;20215;-59
2022/03/23 01:34:33;;;;;;;12.70;6.53;;;;;;;3.68;56.02;97601.59;10412665;28;20191;-60
2022/03/23 01:39:34;;;;;;;13.83;6.63;;;;;;;3.77;55.75;97596.78;10413258;28;20543;-60
2022/03/23 01:44:34;;;;;;;10.80;6.73;;;;;;;3.72;55.24;97590.13;10412461;28;20254;-59
2022/03/23 01:49:38;;;;;;;11.60;6.60;;;;;;;3.64;55.80;97594.09;10411656;28;20225;-61
2022/03/23 01:54:39;;;;;;;14.87;6.80;;;;;;;3.31;56.82;97626.25;10412257;28;20199;-58
2022/03/23 01:59:40;;;;;;;12.33;6.03;;;;;;;3.42;56.53;97610.09;10409546;28;20298;-60
2022/03/23 02:04:40;;;;;;;12.83;6.47;;;;;;;3.41;56.23;97619.59;10409282;28;20192;-59
2022/03/23 02:09:41;;;;;;;13.40;6.57;;;;;;;3.46;56.41;97611.56;10409701;28;20589;-60
2022/03/23 02:14:48;;;;;;;13.17;7.53;;;;;;;3.25;57.09;97621.41;10410243;28;20197;-58
2022/03/23 02:19:48;;;;;;;11.90;6.50;;;;;;;2.87;58.29;97648.53;10410838;28;20215;-61
2022/03/23 02:24:50;;;;;;;9.57;4.93;;;;;;;2.95;58.25;97630.81;10409828;28;20219;-58
2022/03/23 02:29:52;;;;;;;10.97;5.50;;;;;;;3.01;57.92;97624.47;10410521;28;20212;-58
2022/03/23 02:34:52;;;;;;;9.27;5.73;;;;;;;2.93;58.37;97621.50;10409519;28;20242;-59
2022/03/23 02:39:53;;;;;;;10.23;5.67;;;;;;;3.38;55.97;97578.34;10410673;28;20250;-60
2022/03/23 02:44:54;;;;;;;13.07;6.53;;;;;;;3.64;55.06;97560.41;10410873;28;20192;-61
2022/03/23 02:49:54;;;;;;;14.47;5.73;;;;;;;3.40;56.06;97584.28;10409841;28;20603;-58
2022/03/23 03:05:53;;;;;;;10.93;6.27;;;;;;;3.43;55.77;97571.16;10395845;28;20224;-59
2022/03/23 03:10:53;;;;;;;7.93;5.27;;;;;;;3.96;53.39;97521.34;10410149;28;20590;-61
2022/03/23 03:16:02;;;;;;;9.80;6.07;;;;;;;4.11;52.72;97516.00;10410578;28;20544;-58
2022/03/23 03:21:07;;;;;;;8.03;5.20;;;;;;;4.50;51.04;97466.06;10418319;28;20224;-59
2022/03/23 03:26:08;;;;;;;9.33;5.50;;;;;;;4.77;49.67;97455.63;10417623;28;20581;-58
2022/03/23 03:31:11;;;;;;;11.07;6.63;;;;;;;4.84;49.34;97443.91;10417749;28;20215;-58
2022/03/23 03:36:11;;;;;;;10.20;5.63;;;;;;;4.80;49.62;97450.22;10417499;28;20201;-57
2022/03/23 03:41:12;;;;;;;13.73;5.60;;;;;;;5.25;47.78;97410.84;10417292;28;20200;-59
2022/03/23 03:46:12;;;;;;;9.97;6.47;;;;;;;5.04;48.59;97437.38;10417370;28;20256;-60
2022/03/23 03:51:12;;;;;;;10.83;6.10;;;;;;;4.83;48.89;97452.63;10416667;28;20395;-57
2022/03/23 03:56:13;;;;;;;9.57;6.00;;;;;;;4.67;49.34;97468.41;10416923;28;20216;-58
2022/03/23 04:01:14;;;;;;;9.90;6.13;;;;;;;4.89;48.26;97443.59;10416394;28;20208;-59
2022/03/23 04:06:14;;;;;;;12.60;6.20;;;;;;;4.58;49.71;97493.16;10415248;28;20240;-57
2022/03/23 04:11:15;;;;;;;14.73;5.17;;;;;;;4.51;49.62;97483.28;10416060;28;20243;-59
2022/03/23 04:16:16;;;;;;;11.80;6.13;;;;;;;4.05;51.81;97531.13;10415595;28;20195;-60
2022/03/23 04:21:16;;;;;;;10.43;5.87;;;;;;;3.31;54.08;97584.81;10415253;28;20232;-60
2022/03/23 04:26:16;;;;;;;10.97;6.30;;;;;;;2.73;55.27;97605.31;10415456;28;20247;-56
2022/03/23 04:31:17;;;;;;;9.90;5.70;;;;;;;2.64;56.02;97624.75;10414074;28;20666;-59
2022/03/23 04:36:17;;;;;;;13.30;6.13;;;;;;;1.85;59.63;97713.38;10415118;28;20678;-59
2022/03/23 04:41:18;;;;;;;11.97;6.77;;;;;;;1.98;59.23;97707.59;10415466;28;20686;-56
2022/03/23 04:46:18;;;;;;;10.40;6.17;;;;;;;1.69;60.44;97722.81;10414677;28;20250;-59
2022/03/23 04:56:22;;;;;;;28.37;12.27;;;;;;;1.33;62.96;97767.56;10328719;28;20209;-51
2022/03/23 05:01:22;;;;;;;12.43;6.57;;;;;;;1.14;63.79;97793.41;10331955;28;20280;-58
2022/03/23 05:06:23;;;;;;;96.97;38.27;;;;;;;1.12;64.44;97808.13;10332133;28;20212;-58
2022/03/23 05:11:23;;;;;;;14.43;7.87;;;;;;;1.19;64.62;97804.34;10332346;28;20190;-52
2022/03/23 05:16:23;;;;;;;29.13;18.10;;;;;;;1.32;64.23;97794.31;10332105;28;20196;-56
2022/03/23 05:21:24;;;;;;;10.77;6.37;;;;;;;1.69;62.71;97753.81;10331931;28;20202;-51
2022/03/23 05:26:24;;;;;;;9.77;5.47;;;;;;;2.20;60.55;97733.16;10331922;28;20221;-54
2022/03/23 05:31:24;;;;;;;10.97;5.60;;;;;;;2.28;60.77;97721.53;10345739;28;20224;-53
2022/03/23 05:36:25;;;;;;;8.37;5.27;;;;;;;1.99;62.24;97750.59;10331840;28;20196;-54
2022/03/23 05:41:25;;;;;;;10.43;5.50;;;;;;;2.26;60.63;97728.50;10331810;28;20198;-51
2022/03/23 05:46:26;;;;;;;9.27;5.27;;;;;;;2.46;59.98;97724.88;10331306;28;20221;-51
2022/03/23 05:51:26;;;;;;;11.80;5.50;;;;;;;2.68;59.18;97695.31;10331421;28;20225;-56
2022/03/23 05:56:26;;;;;;;11.73;5.63;;;;;;;2.90;58.30;97676.84;10342981;28;20198;-51
2022/03/23 06:01:27;;;;;;;9.03;4.73;;;;;;;3.10;57.35;97670.53;10330222;28;20233;-54
2022/03/23 06:06:27;;;;;;;14.03;5.27;;;;;;;3.45;56.90;97656.53;10329005;28;20228;-53
2022/03/23 06:11:27;;;;;;;9.37;4.53;;;;;;;4.07;55.83;97640.75;10329698;28;20197;-50
2022/03/23 06:16:28;;;;;;;8.63;5.20;;;;;;;4.88;54.19;97632.28;10329433;28;20206;-50
2022/03/23 06:21:28;;;;;;;7.63;4.97;;;;;;;5.44;52.00;97582.75;10329868;28;20216;-52
2022/03/23 06:26:29;;;;;;;12.17;5.23;;;;;;;5.64;52.00;97588.38;10329998;28;20214;-51
2022/03/23 06:31:29;;;;;;;9.83;5.57;;;;;;;5.56;52.50;97598.44;10330961;28;20240;-52
2022/03/23 06:36:29;;;;;;;8.90;5.07;;;;;;;5.95;51.62;97613.09;10341929;28;20559;-56
2022/03/23 06:41:30;;;;;;;8.87;4.90;;;;;;;6.18;52.15;97602.91;10342358;28;20267;-52
2022/03/23 06:46:31;;;;;;;8.63;4.80;;;;;;;6.88;50.49;97580.63;10336752;28;20228;-56
2022/03/23 06:51:31;;;;;;;9.27;4.60;;;;;;;6.81;51.22;97598.44;10329549;28;20309;-55
2022/03/23 06:56:32;;;;;;;14.70;4.93;;;;;;;7.59;50.43;97602.25;10329535;28;20190;-54
2022/03/23 07:01:32;;;;;;;6.80;4.17;;;;;;;7.75;49.74;97599.34;10321328;28;20654;-55
2022/03/23 07:06:32;;;;;;;9.33;4.77;;;;;;;8.15;49.36;97595.44;10323087;28;20730;-56
2022/03/23 07:11:33;;;;;;;11.10;4.97;;;;;;;8.46;48.22;97559.94;10329742;28;20748;-54
2022/03/23 07:16:33;;;;;;;9.10;4.30;;;;;;;9.09;48.16;97582.78;10328901;28;20660;-55
2022/03/23 07:21:34;;;;;;;7.83;4.07;;;;;;;9.60;46.62;97552.41;10326882;28;20197;-54
2022/03/23 07:26:34;;;;;;;6.63;4.37;;;;;;;10.17;46.25;97537.94;10327344;28;20218;-56
2022/03/23 07:31:34;;;;;;;8.27;4.73;;;;;;;10.43;44.71;97513.06;10325081;28;20661;-55
2022/03/23 07:36:37;;;;;;;9.10;4.50;;;;;;;11.24;45.17;97537.22;10324261;28;20716;-55
2022/03/23 07:41:37;;;;;;;12.90;5.30;;;;;;;11.67;42.60;97493.06;10329779;28;20201;-55
2022/03/23 07:46:37;;;;;;;6.40;4.60;;;;;;;12.59;41.83;97495.78;10333072;28;20237;-54
2022/03/23 07:51:39;;;;;;;11.32;4.60;;;;;;;13.49;40.39;97454.38;10345776;28;20293;-56
2022/03/23 07:56:39;;;;;;;27.50;15.93;;;;;;;13.31;40.56;97462.31;10342835;28;20186;-56
2022/03/23 08:01:40;;;;;;;18.67;11.27;;;;;;;15.23;36.66;97408.03;10341121;28;20210;-56
2022/03/23 08:06:40;;;;;;;12.70;7.40;;;;;;;15.26;34.20;97324.03;10340432;28;20229;-56
2022/03/23 08:11:41;;;;;;;10.10;5.40;;;;;;;16.81;32.69;97322.34;10349630;28;20693;-53
2022/03/23 08:16:41;;;;;;;9.45;6.22;;;;;;;17.45;29.83;97232.56;10347076;28;20198;-58
2022/03/23 08:21:42;;;;;;;12.30;7.32;;;;;;;17.06;30.20;97244.38;10344147;28;20213;-58
2022/03/23 08:26:42;;;;;;;12.32;6.63;;;;;;;17.39;28.71;97219.28;10342605;28;20253;-60
2022/03/23 08:31:43;;;;;;;12.10;6.55;;;;;;;18.24;29.40;97293.72;10345698;28;20213;-56
2022/03/23 08:36:43;;;;;;;8.20;6.90;;;;;;;18.88;28.33;97269.75;10341273;28;20186;-60
2022/03/23 08:41:43;;;;;;;10.20;6.40;;;;;;;18.25;29.59;97311.28;10347205;28;20220;-60
2022/03/23 08:46:44;;;;;;;9.95;7.07;;;;;;;18.07;30.92;97347.03;10343565;28;20289;-60
2022/03/23 08:51:45;;;;;;;10.10;7.10;;;;;;;19.79;27.94;97321.03;10331077;28;20246;-58
2022/03/23 08:56:46;;;;;;;10.65;7.32;;;;;;;19.59;27.89;97312.97;10333971;28;20665;-58
2022/03/23 09:01:47;;;;;;;15.57;7.88;;;;;;;20.48;25.63;97247.22;10329098;28;20222;-59
2022/03/23 09:06:47;;;;;;;14.80;7.88;;;;;;;20.25;26.13;97261.78;10326152;28;20272;-59
2022/03/23 09:11:48;;;;;;;12.60;7.10;;;;;;;22.18;24.39;97261.31;10326786;28;20309;-59
2022/03/23 09:16:48;;;;;;;17.70;7.80;;;;;;;21.71;24.48;97229.63;10326965;28;20197;-59
2022/03/23 09:21:50;;;;;;;14.18;7.53;;;;;;;20.49;25.46;97227.59;10367369;28;20205;-61
2022/03/23 09:26:50;;;;;;;12.57;7.78;;;;;;;21.77;24.87;97274.09;10367350;28;20249;-61
2022/03/23 09:31:50;;;;;;;9.50;7.10;;;;;;;22.52;24.77;97307.28;10367562;28;20737;-60
2022/03/23 09:42:09;;;;;;;20.55;10.85;;;;;;;21.12;25.93;97274.19;10366608;28;20221;-58
2022/03/23 09:47:10;;;;;;;10.85;8.48;;;;;;;21.47;25.86;97311.97;10366074;28;20221;-56
2022/03/23 09:52:10;;;;;;;14.73;8.07;;;;;;;22.30;24.15;97269.44;10364680;28;20307;-60
2022/03/23 09:57:11;;;;;;;11.35;8.77;;;;;;;22.29;25.67;97334.53;10355295;28;20225;-58
2022/03/23 10:02:40;;;;;;;12.07;9.50;;;;;;;23.04;24.87;97339.88;10300954;28;20234;-60
2022/03/23 10:07:55;;;;;;;10.38;8.82;;;;;;;24.87;23.10;97305.97;10302974;28;20783;-58
2022/03/23 10:13:14;;;;;;;9.68;8.10;;;;;;;23.61;24.29;97298.75;10302050;28;20202;-60
2022/03/23 10:18:21;;;;;;;14.60;8.90;;;;;;;21.59;26.86;97333.47;10301457;28;21701;-60
2022/03/23 10:23:21;;;;;;;16.98;9.75;;;;;;;21.92;26.32;97333.31;10304082;28;20246;-59
2022/03/23 10:28:22;;;;;;;11.40;8.95;;;;;;;22.95;24.99;97325.19;10304589;28;20324;-62
2022/03/23 10:33:23;;;;;;;11.32;8.32;;;;;;;22.35;25.93;97334.50;10292154;28;20214;-59
2022/03/23 10:38:24;;;;;;;12.23;8.90;;;;;;;22.45;26.05;97347.41;10296030;28;20190;-60
2022/03/23 10:43:35;;;;;;;11.77;8.98;;;;;;;22.22;25.77;97326.56;10323990;28;20214;-62
2022/03/23 10:48:36;;;;;;;13.32;8.60;;;;;;;23.40;25.09;97358.88;10306563;28;20225;-62
2022/03/23 10:53:38;;;;;;;14.35;9.80;;;;;;;25.28;23.21;97336.34;10301373;28;20253;-64
2022/03/23 10:58:38;;;;;;;13.32;9.55;;;;;;;25.85;22.97;97335.66;10305631;28;20190;-64
2022/03/23 11:03:40;;;;;;;13.20;9.00;;;;;;;26.27;22.06;97305.81;10321857;28;20288;-64
2022/03/23 11:08:43;;;;;;;11.90;8.80;;;;;;;26.33;21.97;97301.34;10309121;28;20480;-63
2022/03/23 11:19:19;;;;;;;13.07;9.50;;;;;;;25.81;23.26;97324.56;10326372;22;20290;-62
2022/03/23 11:24:20;;;;;;;11.75;8.27;;;;;;;26.56;21.72;97286.94;10364737;28;20212;-62
2022/03/23 11:29:21;;;;;;;13.63;8.93;;;;;;;25.56;23.03;97281.97;10363864;28;20229;-62
2022/03/23 11:34:23;;;;;;;13.02;8.35;;;;;;;26.79;20.53;97221.44;10364502;28;20185;-60
2022/03/23 11:39:23;;;;;;;12.55;8.32;;;;;;;26.73;22.40;97302.28;10368744;28;20307;-61
2022/03/23 11:44:25;;;;;;;11.43;9.13;;;;;;;25.82;22.56;97263.69;10372502;28;20221;-60
2022/03/23 11:49:46;;;;;;;15.30;9.15;;;;;;;24.57;23.49;97227.34;10371563;28;20245;-60
2022/03/23 12:00:16;;;;;;;11.80;8.52;;;;;;;26.25;22.16;97261.44;10370539;28;20707;-60
2022/03/23 12:05:27;;;;;;;13.07;8.82;;;;;;;25.04;23.29;97250.59;10370746;28;20197;-60
2022/03/23 12:10:31;;;;;;;13.65;8.43;;;;;;;25.76;22.12;97227.88;10370533;28;20217;-61
2022/03/23 12:15:32;;;;;;;12.63;8.25;;;;;;;27.66;20.73;97242.41;10369141;28;20614;-60
2022/03/23 12:20:37;;;;;;;10.38;8.10;;;;;;;26.09;22.50;97246.97;10369963;28;20237;-60
2022/03/23 12:25:43;;;;;;;14.27;8.70;;;;;;;27.51;21.15;97238.50;10363653;28;20201;-62
2022/03/23 12:30:58;;;;;;;11.45;8.13;;;;;;;27.47;20.85;97221.22;10356575;28;20225;-62
2022/03/23 12:36:03;;;;;;;10.95;7.90;;;;;;;27.72;20.52;97219.88;10371123;28;20667;-63
2022/03/23 12:41:08;;;;;;;10.00;6.97;;;;;;;28.78;19.03;97188.63;10329269;28;20229;-63
2022/03/23 12:46:19;;;;;;;9.98;7.03;;;;;;;28.09;19.74;97167.97;10344836;28;20229;-60
2022/03/23 13:02:32;;;;;;;9.38;7.57;;;;;;;28.06;19.56;97157.72;10325772;28;20209;-62
2022/03/23 13:07:33;;;;;;;15.73;8.80;;;;;;;28.49;19.76;97207.03;10370691;28;20240;-62
2022/03/23 13:12:34;;;;;;;13.15;9.10;;;;;;;27.53;19.94;97152.91;10371769;28;20440;-61
2022/03/23 13:17:38;;;;;;;11.63;8.57;;;;;;;26.91;20.47;97154.13;10371432;28;20635;-62
2022/03/23 13:22:39;;;;;;;11.68;9.15;;;;;;;27.57;21.37;97225.91;10371729;28;20285;-63
2022/03/23 13:27:41;;;;;;;10.60;8.98;;;;;;;27.49;20.64;97194.88;10371312;28;20308;-62
2022/03/23 13:32:49;;;;;;;16.75;9.35;;;;;;;27.77;20.91;97209.13;10371353;28;20185;-62
2022/03/23 13:37:59;;;;;;;16.52;10.82;;;;;;;27.31;21.23;97225.59;10370057;28;20366;-62
2022/03/23 13:48:19;;;;;;;15.55;10.45;;;;;;;27.97;20.69;97218.50;10370796;28;20229;-61
2022/03/23 13:53:20;;;;;;;20.42;11.57;;;;;;;27.89;20.68;97192.81;10370206;28;20251;-60
2022/03/23 13:58:25;;;;;;;15.05;12.15;;;;;;;28.69;20.74;97232.53;10370178;28;20296;-62
2022/03/23 14:03:38;;;;;;;16.65;12.10;;;;;;;25.61;23.58;97214.97;10370203;28;20201;-60
2022/03/23 14:08:40;;;;;;;16.88;11.57;;;;;;;26.91;22.24;97229.41;10365529;28;20271;-58
2022/03/23 14:13:48;;;;;;;17.52;12.30;;;;;;;27.13;21.78;97212.47;10366919;28;20186;-59
2022/03/23 14:18:49;;;;;;;15.85;10.50;;;;;;;27.90;20.82;97218.66;10369044;28;20328;-61
2022/03/23 14:23:51;;;;;;;18.02;12.38;;;;;;;25.78;23.94;97241.84;10351737;28;20196;-60
2022/03/23 14:28:51;;;;;;;18.58;11.95;;;;;;;27.13;22.11;97234.78;10368980;28;20226;-59
2022/03/23 14:34:05;;;;;;;16.67;11.82;;;;;;;26.99;22.50;97255.84;10369534;28;20197;-59
2022/03/23 14:39:19;;;;;;;17.30;12.32;;;;;;;26.39;22.32;97209.03;10367362;28;20636;-60
2022/03/23 14:44:34;;;;;;;19.23;11.13;;;;;;;27.12;21.85;97229.66;10368626;28;20845;-60
2022/03/23 14:49:38;;;;;;;16.42;12.75;;;;;;;28.24;21.24;97234.59;10368650;28;20239;-59
2022/03/23 14:54:41;;;;;;;17.77;11.60;;;;;;;28.37;21.61;97252.22;10367776;28;20209;-60
2022/03/23 14:59:42;;;;;;;16.45;11.07;;;;;;;28.54;20.63;97212.44;10368638;28;20356;-59
2022/03/23 15:04:44;;;;;;;16.80;11.38;;;;;;;30.36;20.16;97273.00;10368332;28;20193;-58
2022/03/23 15:15:04;;;;;;;14.68;12.90;;;;;;;28.29;22.65;97278.56;10352950;28;20677;-59
2022/03/23 15:20:06;;;;;;;18.15;13.75;;;;;;;29.03;21.99;97284.22;10354712;28;20260;-60
2022/03/23 15:25:07;;;;;;;21.95;14.15;;;;;;;29.04;21.69;97252.69;10355635;28;20688;-59
2022/03/23 15:30:11;;;;;;;15.85;13.85;;;;;;;27.97;23.21;97266.97;10353669;28;20304;-61
2022/03/23 15:35:11;;;;;;;20.90;15.32;;;;;;;29.77;21.40;97293.19;10353161;28;20637;-57
2022/03/23 15:40:12;;;;;;;22.80;19.23;;;;;;;31.12;20.30;97317.31;10355142;28;20209;-59
2022/03/23 15:45:12;;;;;;;27.45;15.63;;;;;;;29.73;21.46;97267.78;10354435;28;20444;-59
2022/03/23 15:50:13;;;;;;;26.37;18.30;;;;;;;27.97;22.90;97251.63;10354855;28;20219;-61
2022/03/23 15:55:13;;;;;;;25.25;16.45;;;;;;;28.33;23.44;97292.38;10353017;28;20447;-61
2022/03/23 16:00:14;;;;;;;19.23;15.98;;;;;;;26.52;24.30;97240.13;10352388;28;20229;-64
2022/03/23 16:05:14;;;;;;;21.88;15.23;;;;;;;24.85;26.06;97241.88;10355058;28;20201;-64
2022/03/23 16:10:14;;;;;;;20.48;16.60;;;;;;;26.83;24.95;97322.06;10362503;28;20652;-61
2022/03/23 16:15:16;;;;;;;27.58;16.52;;;;;;;26.53;24.87;97303.56;10368773;28;20280;-64
2022/03/23 16:20:17;;;;;;;31.90;16.52;;;;;;;24.91;26.49;97289.19;10352706;28;20241;-61
2022/03/23 16:25:18;;;;;;;26.65;16.55;;;;;;;22.15;28.83;97275.09;10350423;28;20185;-61
2022/03/23 16:30:19;;;;;;;22.27;16.50;;;;;;;19.17;32.59;97309.50;10352607;28;20700;-60
2022/03/23 16:35:23;;;;;;;25.52;17.05;;;;;;;17.59;34.95;97373.16;10350556;28;20272;-61
2022/03/23 16:40:24;;;;;;;24.13;16.52;;;;;;;16.50;36.78;97439.69;10371111;28;20213;-61
2022/03/23 16:45:26;;;;;;;20.50;15.18;;;;;;;16.13;37.85;97487.00;10372928;28;20258;-62
2022/03/23 16:50:27;;;;;;;21.52;15.68;;;;;;;15.46;39.19;97521.69;10358244;28;20209;-61
2022/03/23 16:55:29;;;;;;;20.35;15.07;;;;;;;15.20;39.09;97533.25;10348004;28;20617;-61
2022/03/23 17:00:34;;;;;;;24.67;15.32;;;;;;;14.79;40.17;97554.31;10359246;28;20213;-59
2022/03/23 17:16:14;;;;;;;29.63;17.55;;;;;;;11.02;51.00;97736.78;10332818;28;20217;-60
2022/03/23 17:21:16;;;;;;;31.00;20.43;;;;;;;9.23;54.92;97762.91;10362847;22;20267;-58
2022/03/23 17:26:18;;;;;;;32.40;19.03;;;;;;;9.48;54.58;97744.38;10371612;28;20232;-58
2022/03/23 17:31:19;;;;;;;27.33;17.77;;;;;;;9.50;54.94;97730.25;10367878;28;20210;-56
2022/03/23 17:36:20;;;;;;;33.60;18.63;;;;;;;9.02;56.89;97752.34;10349864;28;20217;-58
2022/03/23 17:41:20;;;;;;;25.93;16.37;;;;;;;9.10;58.35;97770.03;10338297;28;20213;-58
2022/03/23 17:46:21;;;;;;;30.00;16.87;;;;;;;8.81;59.20;97764.50;10330729;28;20261;-59
2022/03/23 17:51:23;;;;;;;26.40;16.03;;;;;;;8.56;60.79;97785.50;10328202;28;20628;-60
2022/03/23 17:56:23;;;;;;;29.40;14.97;;;;;;;8.23;63.02;97794.06;10329010;28;20285;-60
2022/03/23 18:01:25;;;;;;;29.83;16.67;;;;;;;8.05;64.01;97785.81;10329707;28;20858;-60
2022/03/23 18:06:26;;;;;;;29.27;15.53;;;;;;;7.93;64.89;97784.97;10330076;28;20272;-60
2022/03/23 18:11:26;;;;;;;32.10;15.20;;;;;;;7.83;64.84;97790.00;10330110;28;20206;-60
2022/03/23 18:16:27;;;;;;;31.30;18.00;;;;;;;7.56;65.96;97792.03;10328752;28;20754;-57
2022/03/23 18:21:28;;;;;;;28.00;15.30;;;;;;;7.38;66.82;97789.81;10328877;28;20238;-58
2022/03/23 18:26:28;;;;;;;27.10;15.00;;;;;;;7.16;67.63;97800.09;10327415;28;20241;-60
2022/03/23 18:31:29;;;;;;;32.73;16.33;;;;;;;7.02;67.97;97790.63;10328406;28;20688;-61
2022/03/23 18:36:30;;;;;;;31.33;16.00;;;;;;;6.87;68.68;97789.94;10329389;28;20201;-58
2022/03/23 18:41:31;;;;;;;38.17;16.63;;;;;;;6.63;69.38;97793.28;10328623;28;20700;-61
2022/03/23 18:46:31;;;;;;;25.73;15.30;;;;;;;6.48;70.16;97802.97;10327410;28;20226;-60
2022/03/23 18:51:32;;;;;;;30.13;15.00;;;;;;;6.27;71.01;97807.84;10327781;28;20315;-57
2022/03/23 18:56:32;;;;;;;24.50;13.90;;;;;;;6.11;71.29;97801.97;10329017;28;20194;-60
2022/03/23 19:01:33;;;;;;;26.07;15.80;;;;;;;5.92;72.02;97803.16;10328958;28;20249;-54
2022/03/23 19:06:33;;;;;;;27.17;15.43;;;;;;;5.77;73.10;97801.56;10328722;28;20214;-59
2022/03/23 19:11:34;;;;;;;29.67;15.50;;;;;;;5.65;73.33;97803.19;10328422;28;20323;-59
2022/03/23 19:16:35;;;;;;;25.43;14.00;;;;;;;5.50;74.15;97797.22;10308227;28;20186;-61
2022/03/23 19:21:35;;;;;;;25.40;14.63;;;;;;;5.43;74.17;97795.94;10346782;28;20238;-58
2022/03/23 19:26:36;;;;;;;25.90;16.30;;;;;;;5.25;75.00;97798.75;10345628;28;20209;-58
2022/03/23 19:31:37;;;;;;;24.27;12.90;;;;;;;5.16;75.66;97809.72;10330368;28;20268;-58
2022/03/23 19:36:37;;;;;;;24.57;13.20;;;;;;;5.05;76.33;97804.34;10327928;28;20285;-58
2022/03/23 19:41:41;;;;;;;25.50;15.43;;;;;;;4.91;76.95;97810.41;10327090;28;20624;-59
2022/03/23 19:46:41;;;;;;;30.90;16.93;;;;;;;4.74;77.30;97801.06;10326047;28;20237;-55
2022/03/23 19:51:42;;;;;;;25.80;15.23;;;;;;;4.61;78.07;97803.56;10327232;28;20244;-58
2022/03/23 19:56:42;;;;;;;23.57;11.03;;;;;;;4.50;78.31;97811.97;10327886;28;20182;-55
2022/03/23 20:01:42;;;;;;;29.03;15.10;;;;;;;4.41;79.12;97802.13;10333254;28;20568;-58
2022/03/23 20:06:44;;;;;;;32.57;17.07;;;;;;;4.28;79.37;97791.66;10334426;28;20265;-57
2022/03/23 20:11:45;;;;;;;27.87;15.37;;;;;;;4.16;80.35;97797.56;10333767;28;20300;-58
2022/03/23 20:16:45;;;;;;;24.50;15.27;;;;;;;4.09;81.09;97794.50;10333687;28;20264;-59
2022/03/23 20:21:46;;;;;;;36.23;16.97;;;;;;;4.00;81.24;97792.44;10333886;28;20336;-59
2022/03/23 20:26:46;;;;;;;28.03;14.80;;;;;;;3.87;81.73;97785.34;10334051;28;20218;-58
2022/03/23 20:31:46;;;;;;;32.77;18.07;;;;;;;3.69;83.13;97786.41;10333946;28;20226;-57
2022/03/23 20:36:47;;;;;;;30.10;17.23;;;;;;;3.63;83.44;97784.16;10333645;28;20352;-57
2022/03/23 20:41:47;;;;;;;22.47;12.90;;;;;;;3.49;84.23;97788.38;10333368;28;20209;-59
2022/03/23 20:46:47;;;;;;;24.27;12.80;;;;;;;3.52;83.94;97792.53;10332731;28;20247;-58
2022/03/23 20:51:48;;;;;;;34.50;17.97;;;;;;;3.49;83.67;97790.97;10333007;28;20595;-56
2022/03/23 20:56:49;;;;;;;34.53;16.83;;;;;;;3.46;83.72;97785.09;10332094;28;20236;-54
2022/03/23 21:01:49;;;;;;;31.90;18.57;;;;;;;3.43;83.68;97786.13;10331931;28;20210;-57
2022/03/23 21:06:52;;;;;;;27.40;16.27;;;;;;;3.30;83.94;97774.78;10332650;28;20214;-58
2022/03/23 21:11:53;;;;;;;28.50;18.43;;;;;;;3.12;85.53;97784.38;10331483;28;20230;-59
2022/03/23 21:16:53;;;;;;;33.80;19.60;;;;;;;3.16;85.48;97778.13;10331523;28;20214;-57
2022/03/23 21:21:54;;;;;;;26.23;15.37;;;;;;;3.11;85.38;97786.13;10331615;28;20352;-58
2022/03/23 21:26:54;;;;;;;32.60;18.63;;;;;;;2.99;85.83;97790.22;10339520;28;20218;-60
2022/03/23 21:31:54;;;;;;;27.23;16.83;;;;;;;2.95;85.94;97787.88;10347926;28;20225;-54
2022/03/23 21:36:55;;;;;;;30.13;17.73;;;;;;;2.88;86.22;97781.34;10331125;28;20178;-58
2022/03/23 21:41:55;;;;;;;33.00;16.13;;;;;;;2.85;86.60;97778.03;10331002;28;20213;-54
2022/03/23 21:46:56;;;;;;;29.93;16.97;;;;;;;2.76;86.91;97778.50;10330415;28;20225;-57
2022/03/23 21:51:56;;;;;;;31.90;14.77;;;;;;;2.72;86.63;97782.16;10330442;28;20217;-57
2022/03/23 21:56:57;;;;;;;27.33;13.70;;;;;;;2.67;86.96;97773.81;10330879;28;20248;-54
2022/03/23 22:01:58;;;;;;;33.73;17.97;;;;;;;2.58;87.18;97771.72;10330365;28;20218;-56
2022/03/23 22:06:59;;;;;;;34.90;18.27;;;;;;;2.45;87.70;97774.94;10330519;28;20710;-56
2022/03/23 22:11:59;;;;;;;33.67;19.50;;;;;;;2.41;88.23;97778.59;10330626;28;20217;-57
2022/03/23 22:16:59;;;;;;;30.57;16.73;;;;;;;2.41;87.81;97762.25;10329495;28;20574;-57
2022/03/23 22:22:00;;;;;;;33.13;21.33;;;;;;;2.42;87.28;97774.25;10327573;28;20324;-58
2022/03/23 22:27:00;;;;;;;32.40;16.33;;;;;;;2.32;88.07;97768.72;10329912;28;20288;-58
2022/03/23 22:32:01;;;;;;;22.60;12.00;;;;;;;2.29;87.52;97758.53;10330429;28;20221;-54
2022/03/23 22:37:01;;;;;;;36.43;18.60;;;;;;;2.18;87.91;97772.03;10330377;28;20251;-58
2022/03/23 22:42:02;;;;;;;24.13;13.70;;;;;;;2.24;87.58;97760.53;10330029;28;20213;-59
2022/03/23 22:47:02;;;;;;;23.20;13.23;;;;;;;2.13;87.90;97776.59;10329435;28;20261;-58
2022/03/23 22:52:04;;;;;;;23.40;11.97;;;;;;;1.89;89.35;97766.56;10329673;28;20687;-58
2022/03/23 22:57:05;;;;;;;29.30;16.37;;;;;;;1.85;89.60;97765.03;10329715;28;20279;-58
2022/03/23 23:02:05;;;;;;;30.77;17.93;;;;;;;1.84;89.50;97757.34;10329648;28;20254;-56
2022/03/23 23:07:17;;;;;;;27.73;15.40;;;;;;;1.95;88.78;97757.69;10329319;28;20225;-58
2022/03/23 23:12:17;;;;;;;31.03;15.97;;;;;;;1.84;88.71;97765.97;10329387;28;20304;-57
2022/03/23 23:17:18;;;;;;;30.73;16.73;;;;;;;1.86;88.39;97760.72;10329074;28;20217;-59
2022/03/23 23:22:18;;;;;;;31.13;14.03;;;;;;;1.85;87.62;97766.78;10365525;22;20248;-59
2022/03/23 23:27:21;;;;;;;28.47;15.70;;;;;;;1.83;87.58;97766.03;10369670;28;20224;-61
2022/03/23 23:32:23;;;;;;;33.97;16.13;;;;;;;1.84;87.13;97760.78;10369576;28;20765;-62
2022/03/23 23:37:26;;;;;;;31.20;16.53;;;;;;;1.46;89.26;97773.00;10376852;28;20192;-61
2022/03/23 23:42:28;;;;;;;25.63;13.37;;;;;;;1.46;89.76;97767.84;10376971;28;20241;-62
2022/03/23 23:47:28;;;;;;;29.97;16.43;;;;;;;1.47;90.20;97769.50;10376780;28;20224;-61
2022/03/23 23:52:28;;;;;;;22.80;12.33;;;;;;;1.49;89.53;97770.28;10376761;28;20220;-61
2022/03/23 23:57:29;;;;;;;35.87;17.83;;;;;;;1.32;89.75;97758.19;10376876;28;20269;-61
